Time;durP1;ratioP1;P1;durP2;ratioP2;P2;SDS_P1;SDS_P2;PMS_P1;PMS_P2;Temp;Humidity;BMP_temperature;BMP_pressure;BME280_temperature;BME280_humidity;BME280_pressure;Samples;Min_cycle;Max_cycle;Signal;HPM_P1;HPM_P2
2024/01/20 00:00:43;;;;;;;17.35;6.63;;;;;;;;;;5035571;28;20052;-84
2024/01/20 00:03:09;;;;;;;14.48;7.80;;;;;;;;;;5020029;28;20121;-85
2024/01/20 00:05:35;;;;;;;11.88;8.23;;;;;;;;;;5018551;28;20132;-83
2024/01/20 00:08:01;;;;;;;13.93;8.63;;;;;;;;;;5023017;28;20041;-86
2024/01/20 00:10:27;;;;;;;16.10;8.30;;;;;;;;;;5028431;28;20465;-83
2024/01/20 00:12:53;;;;;;;12.65;9.10;;;;;;;;;;5024649;28;20047;-84
2024/01/20 00:15:19;;;;;;;15.30;8.75;;;;;;;;;;5017260;28;20047;-83
2024/01/20 00:17:45;;;;;;;14.07;8.68;;;;;;;;;;5025551;28;20661;-83
2024/01/20 00:20:12;;;;;;;15.25;9.10;;;;;;;;;;5039798;28;20081;-84
2024/01/20 00:22:38;;;;;;;18.30;9.20;;;;;;;;;;5041837;28;20060;-83
2024/01/20 00:25:04;;;;;;;17.20;9.13;;;;;;;;;;5019485;28;20041;-84
2024/01/20 00:27:30;;;;;;;15.23;9.00;;;;;;;;;;5019692;28;20557;-84
2024/01/20 00:29:56;;;;;;;15.88;9.68;;;;;;;;;;5035524;28;20469;-84
2024/01/20 00:32:22;;;;;;;17.30;9.85;;;;;;;;;;5011385;28;20455;-84
2024/01/20 00:34:48;;;;;;;16.13;9.23;;;;;;;;;;5042589;28;20051;-84
2024/01/20 00:37:14;;;;;;;18.13;9.73;;;;;;;;;;5018464;28;20053;-83
2024/01/20 00:39:40;;;;;;;15.70;10.23;;;;;;;;;;5033391;28;20057;-83
2024/01/20 00:42:06;;;;;;;19.75;8.82;;;;;;;;;;5012104;28;20061;-83
2024/01/20 00:44:32;;;;;;;13.43;9.57;;;;;;;;;;5020315;28;20053;-84
2024/01/20 00:46:58;;;;;;;17.35;9.85;;;;;;;;;;5038633;28;20049;-84
2024/01/20 00:49:24;;;;;;;18.83;10.10;;;;;;;;;;5024331;28;20045;-83
2024/01/20 00:51:50;;;;;;;15.68;9.93;;;;;;;;;;5036796;28;20055;-83
2024/01/20 00:54:16;;;;;;;18.83;9.65;;;;;;;;;;5015820;28;20088;-83
2024/01/20 00:56:42;;;;;;;16.20;10.38;;;;;;;;;;5042694;28;20084;-83
2024/01/20 00:59:09;;;;;;;17.55;10.13;;;;;;;;;;5038350;28;20084;-83
2024/01/20 01:01:35;;;;;;;16.52;9.55;;;;;;;;;;5020525;28;20568;-83
2024/01/20 01:04:01;;;;;;;19.13;10.63;;;;;;;;;;5030553;28;20045;-83
2024/01/20 01:06:27;;;;;;;13.38;9.95;;;;;;;;;;5025309;28;20049;-83
2024/01/20 01:08:53;;;;;;;18.08;10.90;;;;;;;;;;5031737;28;20484;-83
2024/01/20 01:11:19;;;;;;;15.68;11.13;;;;;;;;;;5018673;28;20052;-83
2024/01/20 01:13:45;;;;;;;16.90;10.43;;;;;;;;;;5041379;28;20036;-83
2024/01/20 01:16:11;;;;;;;21.92;11.90;;;;;;;;;;5042297;28;20045;-83
2024/01/20 01:18:37;;;;;;;17.70;11.25;;;;;;;;;;5024878;28;20041;-83
2024/01/20 01:21:03;;;;;;;18.10;11.25;;;;;;;;;;5020355;28;20572;-85
2024/01/20 01:23:29;;;;;;;21.70;10.93;;;;;;;;;;5024376;28;20043;-83
2024/01/20 01:25:55;;;;;;;18.58;10.82;;;;;;;;;;5041050;28;20049;-84
2024/01/20 01:28:21;;;;;;;21.10;11.90;;;;;;;;;;5038744;28;20044;-84
2024/01/20 01:30:48;;;;;;;19.30;11.23;;;;;;;;;;5036905;28;20812;-84
2024/01/20 01:33:14;;;;;;;22.80;11.45;;;;;;;;;;5022069;28;20499;-83
2024/01/20 01:35:40;;;;;;;20.48;10.85;;;;;;;;;;5013033;28;20597;-84
2024/01/20 01:38:06;;;;;;;15.32;10.57;;;;;;;;;;5041957;28;20068;-83
2024/01/20 01:40:32;;;;;;;22.50;11.88;;;;;;;;;;5029613;28;20041;-83
2024/01/20 01:42:59;;;;;;;19.88;11.43;;;;;;;;;;5040437;28;20173;-84
2024/01/20 01:45:25;;;;;;;22.92;11.88;;;;;;;;;;5043857;28;20052;-84
2024/01/20 01:47:53;;;;;;;16.95;10.80;;;;;;;;;;5041664;28;20049;-84
2024/01/20 01:50:19;;;;;;;20.05;11.68;;;;;;;;;;5017925;28;20417;-83
2024/01/20 01:52:54;;;;;;;24.92;11.85;;;;;;;;;;5017418;28;20052;-84
2024/01/20 01:55:20;;;;;;;21.38;11.75;;;;;;;;;;5025007;28;21517;-83
2024/01/20 01:57:47;;;;;;;21.45;12.90;;;;;;;;;;5041862;28;20668;-83
2024/01/20 02:00:13;;;;;;;21.92;12.43;;;;;;;;;;5034295;28;20452;-84
2024/01/20 02:02:39;;;;;;;23.48;12.27;;;;;;;;;;5037514;28;20048;-84
2024/01/20 02:05:05;;;;;;;21.08;12.82;;;;;;;;;;5033967;28;20049;-84
2024/01/20 02:07:32;;;;;;;22.40;13.38;;;;;;;;;;5041891;28;20052;-84
2024/01/20 02:09:58;;;;;;;19.85;12.65;;;;;;;;;;5025719;28;20045;-83
2024/01/20 02:12:24;;;;;;;21.85;13.65;;;;;;;;;;5034827;28;20045;-83
2024/01/20 02:14:50;;;;;;;24.15;13.93;;;;;;;;;;5040521;28;20048;-83
2024/01/20 02:17:16;;;;;;;22.50;13.30;;;;;;;;;;5026488;28;20053;-83
2024/01/20 02:19:42;;;;;;;22.23;14.52;;;;;;;;;;5021641;28;20099;-83
2024/01/20 02:22:15;;;;;;;25.77;13.68;;;;;;;;;;5038990;28;20049;-83
2024/01/20 02:24:48;;;;;;;28.67;14.77;;;;;;;;;;5040227;28;20702;-84
2024/01/20 02:27:14;;;;;;;22.98;13.57;;;;;;;;;;5028298;28;20052;-83
2024/01/20 02:29:40;;;;;;;22.50;14.80;;;;;;;;;;5027650;28;20033;-84
2024/01/20 02:32:06;;;;;;;20.85;14.95;;;;;;;;;;5020489;28;20803;-83
2024/01/20 02:34:32;;;;;;;26.10;15.52;;;;;;;;;;5045417;28;20045;-83
2024/01/20 02:36:59;;;;;;;29.95;16.27;;;;;;;;;;5022499;28;20135;-83
2024/01/20 02:39:26;;;;;;;26.33;16.77;;;;;;;;;;5020382;28;20084;-85
2024/01/20 02:41:52;;;;;;;29.52;15.05;;;;;;;;;;5044413;28;20060;-83
2024/01/20 02:44:18;;;;;;;26.80;16.35;;;;;;;;;;5027630;28;20099;-83
2024/01/20 02:46:44;;;;;;;32.90;17.52;;;;;;;;;;5023542;28;20056;-83
2024/01/20 02:49:10;;;;;;;30.35;17.08;;;;;;;;;;5048247;28;20044;-83
2024/01/20 02:51:36;;;;;;;29.00;17.88;;;;;;;;;;5040451;28;20053;-83
2024/01/20 02:54:02;;;;;;;30.00;17.77;;;;;;;;;;5024852;28;20048;-83
2024/01/20 02:56:28;;;;;;;30.40;17.75;;;;;;;;;;5045554;28;20787;-84
2024/01/20 02:58:54;;;;;;;30.67;17.90;;;;;;;;;;5024610;28;20044;-83
2024/01/20 03:01:20;;;;;;;28.10;18.33;;;;;;;;;;5044553;28;20044;-84
2024/01/20 03:03:46;;;;;;;31.42;18.23;;;;;;;;;;5022658;28;20071;-83
2024/01/20 03:06:12;;;;;;;33.42;18.67;;;;;;;;;;5023704;28;20088;-83
2024/01/20 03:08:38;;;;;;;29.35;17.33;;;;;;;;;;5029809;28;20033;-84
2024/01/20 03:11:04;;;;;;;28.20;17.33;;;;;;;;;;5011989;28;20382;-84
2024/01/20 03:13:30;;;;;;;29.17;19.02;;;;;;;;;;5038842;28;20849;-83
2024/01/20 03:15:56;;;;;;;33.60;18.38;;;;;;;;;;5025308;28;20128;-84
2024/01/20 03:18:23;;;;;;;29.58;17.77;;;;;;;;;;5035941;28;20491;-85
2024/01/20 03:20:49;;;;;;;34.80;17.95;;;;;;;;;;5034080;28;20036;-83
2024/01/20 03:23:15;;;;;;;33.65;18.25;;;;;;;;;;5035576;28;20045;-83
2024/01/20 03:25:41;;;;;;;31.52;18.02;;;;;;;;;;5032058;28;20039;-84
2024/01/20 03:28:07;;;;;;;31.75;19.30;;;;;;;;;;5045024;28;20037;-84
2024/01/20 03:30:33;;;;;;;28.55;17.92;;;;;;;;;;5039137;28;20038;-84
2024/01/20 03:32:59;;;;;;;28.00;18.52;;;;;;;;;;5040824;28;20076;-83
2024/01/20 03:35:25;;;;;;;30.13;18.27;;;;;;;;;;5027464;28;20051;-84
2024/01/20 03:37:51;;;;;;;30.63;17.80;;;;;;;;;;5027965;28;20063;-83
2024/01/20 03:40:17;;;;;;;30.20;18.23;;;;;;;;;;5033164;28;20048;-83
2024/01/20 03:42:43;;;;;;;29.67;17.80;;;;;;;;;;5027310;28;20157;-84
2024/01/20 03:45:09;;;;;;;29.00;16.30;;;;;;;;;;5021900;28;20414;-83
2024/01/20 03:47:35;;;;;;;28.58;17.67;;;;;;;;;;5023771;28;20045;-84
2024/01/20 03:50:03;;;;;;;32.58;18.65;;;;;;;;;;5044374;28;20053;-83
2024/01/20 03:52:30;;;;;;;34.40;18.55;;;;;;;;;;5040671;28;20040;-84
2024/01/20 03:54:56;;;;;;;33.28;18.08;;;;;;;;;;5028333;28;20048;-84
2024/01/20 03:57:23;;;;;;;29.80;18.42;;;;;;;;;;5027207;28;20048;-83
2024/01/20 03:59:49;;;;;;;32.75;18.67;;;;;;;;;;5026342;28;20041;-84
2024/01/20 04:02:15;;;;;;;27.60;18.38;;;;;;;;;;5016255;28;20049;-83
2024/01/20 04:04:41;;;;;;;33.50;18.60;;;;;;;;;;5024473;28;20059;-83
2024/01/20 04:07:07;;;;;;;29.10;17.73;;;;;;;;;;5041395;28;20772;-84
2024/01/20 04:09:33;;;;;;;30.90;17.67;;;;;;;;;;5024103;28;20570;-83
2024/01/20 04:11:59;;;;;;;34.72;18.08;;;;;;;;;;5025591;28;20045;-83
2024/01/20 04:14:25;;;;;;;41.63;19.50;;;;;;;;;;5024408;28;20033;-83
2024/01/20 04:16:51;;;;;;;26.98;16.35;;;;;;;;;;5020454;28;20052;-83
2024/01/20 04:19:17;;;;;;;27.92;18.05;;;;;;;;;;5041343;28;20455;-84
2024/01/20 04:21:43;;;;;;;32.80;18.10;;;;;;;;;;5039736;28;20130;-83
2024/01/20 04:24:09;;;;;;;32.60;16.63;;;;;;;;;;5045226;28;20053;-83
2024/01/20 04:26:35;;;;;;;29.25;16.20;;;;;;;;;;5038482;28;20048;-83
2024/01/20 04:29:01;;;;;;;33.05;17.70;;;;;;;;;;5030486;28;20037;-84
2024/01/20 04:31:27;;;;;;;34.35;20.05;;;;;;;;;;5030737;28;20860;-83
2024/01/20 04:33:53;;;;;;;35.45;18.75;;;;;;;;;;5023542;28;20829;-83
2024/01/20 04:36:20;;;;;;;33.58;19.33;;;;;;;;;;5026391;28;20060;-85
2024/01/20 04:38:46;;;;;;;32.35;17.30;;;;;;;;;;5024304;28;20522;-83
2024/01/20 04:41:12;;;;;;;38.53;18.95;;;;;;;;;;5038021;28;20471;-83
2024/01/20 04:43:38;;;;;;;35.20;19.38;;;;;;;;;;5039602;28;20132;-83
2024/01/20 04:46:04;;;;;;;32.00;17.90;;;;;;;;;;5024458;28;20045;-83
2024/01/20 04:48:31;;;;;;;35.17;18.13;;;;;;;;;;5037355;28;20042;-83
2024/01/20 04:50:57;;;;;;;42.45;17.42;;;;;;;;;;5021396;28;20056;-83
2024/01/20 04:53:23;;;;;;;31.33;17.38;;;;;;;;;;5023265;28;20528;-83
2024/01/20 04:55:49;;;;;;;33.72;18.70;;;;;;;;;;5036136;28;20045;-83
2024/01/20 04:58:15;;;;;;;35.85;17.08;;;;;;;;;;5043855;28;20072;-83
2024/01/20 05:00:41;;;;;;;35.13;18.98;;;;;;;;;;5040178;28;20123;-84
2024/01/20 05:03:07;;;;;;;36.58;18.17;;;;;;;;;;5050069;28;20064;-83
2024/01/20 05:05:33;;;;;;;35.22;19.25;;;;;;;;;;5042976;28;20512;-84
2024/01/20 05:08:00;;;;;;;42.90;18.85;;;;;;;;;;5036091;28;20117;-83
2024/01/20 05:10:26;;;;;;;31.73;17.58;;;;;;;;;;5034015;28;20040;-83
2024/01/20 05:12:52;;;;;;;36.42;19.20;;;;;;;;;;5029260;28;20048;-83
2024/01/20 05:15:18;;;;;;;41.05;19.40;;;;;;;;;;5015734;28;20045;-84
2024/01/20 05:17:44;;;;;;;36.42;17.77;;;;;;;;;;5039421;28;20052;-83
2024/01/20 05:20:14;;;;;;;34.53;17.58;;;;;;;;;;5036838;28;20183;-84
2024/01/20 05:22:41;;;;;;;41.83;19.38;;;;;;;;;;5030588;28;20041;-83
2024/01/20 05:25:07;;;;;;;43.50;19.25;;;;;;;;;;5029391;28;20122;-83
2024/01/20 05:27:33;;;;;;;36.22;19.30;;;;;;;;;;5041075;28;20036;-83
2024/01/20 05:29:59;;;;;;;40.05;19.80;;;;;;;;;;5043848;28;20477;-84
2024/01/20 05:32:26;;;;;;;34.42;18.92;;;;;;;;;;5028847;28;20094;-83
2024/01/20 05:34:52;;;;;;;39.00;20.38;;;;;;;;;;5016284;28;20047;-83
2024/01/20 05:37:18;;;;;;;42.65;19.63;;;;;;;;;;5024811;28;20061;-83
2024/01/20 05:39:44;;;;;;;37.17;18.63;;;;;;;;;;5034361;28;20531;-83
2024/01/20 05:42:10;;;;;;;40.80;18.30;;;;;;;;;;5031527;28;20102;-83
2024/01/20 05:44:36;;;;;;;38.65;18.65;;;;;;;;;;5027391;28;20056;-84
2024/01/20 05:47:02;;;;;;;47.00;21.65;;;;;;;;;;5050147;28;20077;-84
2024/01/20 05:49:28;;;;;;;34.10;19.13;;;;;;;;;;5041370;28;20048;-84
2024/01/20 05:51:54;;;;;;;39.75;19.48;;;;;;;;;;5043277;28;20205;-84
2024/01/20 05:54:20;;;;;;;42.88;19.80;;;;;;;;;;5046317;28;20047;-84
2024/01/20 05:56:46;;;;;;;43.63;21.02;;;;;;;;;;5043269;28;20041;-84
2024/01/20 05:59:12;;;;;;;40.67;19.60;;;;;;;;;;5042532;28;20045;-83
2024/01/20 06:01:38;;;;;;;40.63;20.45;;;;;;;;;;5043525;28;20119;-84
2024/01/20 06:04:04;;;;;;;38.13;20.33;;;;;;;;;;5027129;28;20103;-84
2024/01/20 06:06:30;;;;;;;42.53;19.88;;;;;;;;;;5044860;28;20041;-85
2024/01/20 06:08:56;;;;;;;46.25;20.05;;;;;;;;;;5041803;28;20564;-83
2024/01/20 06:11:24;;;;;;;46.55;19.65;;;;;;;;;;5028988;28;20076;-83
2024/01/20 06:13:50;;;;;;;42.55;19.35;;;;;;;;;;5034810;28;20794;-83
2024/01/20 06:16:17;;;;;;;44.42;20.42;;;;;;;;;;5041696;28;20049;-83
2024/01/20 06:18:43;;;;;;;41.97;20.65;;;;;;;;;;5045022;28;20045;-84
2024/01/20 06:21:09;;;;;;;43.25;20.20;;;;;;;;;;5038194;28;20052;-83
2024/01/20 06:23:35;;;;;;;45.22;20.63;;;;;;;;;;5035537;28;20049;-83
2024/01/20 06:26:01;;;;;;;44.67;21.85;;;;;;;;;;5041495;28;20098;-84
2024/01/20 06:28:27;;;;;;;45.45;20.70;;;;;;;;;;5029442;28;20178;-84
2024/01/20 06:30:53;;;;;;;41.72;20.38;;;;;;;;;;5040858;28;20487;-84
2024/01/20 06:33:19;;;;;;;47.80;21.23;;;;;;;;;;5046727;28;20143;-83
2024/01/20 06:35:45;;;;;;;43.53;21.23;;;;;;;;;;5022705;28;20501;-83
2024/01/20 06:38:11;;;;;;;45.03;21.05;;;;;;;;;;5034159;28;20069;-84
2024/01/20 06:40:37;;;;;;;44.55;19.80;;;;;;;;;;5030168;28;20768;-83
2024/01/20 06:43:03;;;;;;;50.67;21.08;;;;;;;;;;5050334;28;20040;-83
2024/01/20 06:45:33;;;;;;;54.65;22.17;;;;;;;;;;5054014;28;20510;-82
2024/01/20 06:48:00;;;;;;;48.35;22.17;;;;;;;;;;5039982;28;20103;-83
2024/01/20 06:50:26;;;;;;;42.50;19.88;;;;;;;;;;5031540;28;20060;-83
2024/01/20 06:52:52;;;;;;;48.13;22.80;;;;;;;;;;5044260;28;20759;-83
2024/01/20 06:55:18;;;;;;;51.53;23.02;;;;;;;;;;5049686;28;20044;-83
2024/01/20 06:57:44;;;;;;;44.72;19.48;;;;;;;;;;5023968;28;20717;-84
2024/01/20 07:00:10;;;;;;;48.17;21.17;;;;;;;;;;5042338;28;20132;-83
2024/01/20 07:02:36;;;;;;;48.42;20.23;;;;;;;;;;5040210;28;20045;-83
2024/01/20 07:05:02;;;;;;;45.20;20.75;;;;;;;;;;5041420;28;20103;-83
2024/01/20 07:07:28;;;;;;;46.08;21.42;;;;;;;;;;5042362;28;20046;-83
2024/01/20 07:09:54;;;;;;;50.10;22.63;;;;;;;;;;5036785;28;20048;-82
2024/01/20 07:12:21;;;;;;;46.40;20.92;;;;;;;;;;5027863;28;20068;-83
2024/01/20 07:14:47;;;;;;;45.80;20.60;;;;;;;;;;5033657;28;20150;-83
2024/01/20 07:17:13;;;;;;;46.22;21.15;;;;;;;;;;5045355;28;20878;-84
2024/01/20 07:19:39;;;;;;;51.78;21.98;;;;;;;;;;5046694;28;20060;-83
2024/01/20 07:22:05;;;;;;;54.85;22.40;;;;;;;;;;5032167;28;20041;-82
2024/01/20 07:24:31;;;;;;;46.30;21.73;;;;;;;;;;5025134;28;20045;-83
2024/01/20 07:26:57;;;;;;;46.28;21.02;;;;;;;;;;5039192;28;20045;-83
2024/01/20 07:29:24;;;;;;;48.80;21.23;;;;;;;;;;5023529;28;20048;-83
2024/01/20 07:31:50;;;;;;;49.38;20.38;;;;;;;;;;5044718;28;20124;-84
2024/01/20 07:34:16;;;;;;;51.75;22.02;;;;;;;;;;5041462;28;20070;-83
2024/01/20 07:36:42;;;;;;;47.10;20.80;;;;;;;;;;5028651;28;20041;-83
2024/01/20 07:39:08;;;;;;;49.83;22.30;;;;;;;;;;5044405;28;20052;-83
2024/01/20 07:41:34;;;;;;;47.30;20.95;;;;;;;;;;5028235;28;20098;-84
2024/01/20 07:44:00;;;;;;;42.75;19.20;;;;;;;;;;5016103;28;20136;-83
2024/01/20 07:46:26;;;;;;;48.25;21.40;;;;;;;;;;5044392;28;20177;-83
2024/01/20 07:48:52;;;;;;;43.00;20.65;;;;;;;;;;5026929;28;20626;-83
2024/01/20 07:51:18;;;;;;;48.30;21.05;;;;;;;;;;5033721;28;20045;-84
2024/01/20 07:53:44;;;;;;;44.50;20.88;;;;;;;;;;5019467;28;20041;-83
2024/01/20 07:56:11;;;;;;;46.40;19.40;;;;;;;;;;5027952;28;20048;-83
2024/01/20 07:58:37;;;;;;;48.40;20.00;;;;;;;;;;5025300;28;20040;-83
2024/01/20 08:01:03;;;;;;;50.03;22.48;;;;;;;;;;5028013;28;20041;-84
2024/01/20 08:03:29;;;;;;;46.67;21.50;;;;;;;;;;5027882;28;20125;-83
2024/01/20 08:05:55;;;;;;;46.53;21.50;;;;;;;;;;5030836;28;20048;-83
2024/01/20 08:08:21;;;;;;;50.33;20.85;;;;;;;;;;5039491;28;20118;-84
2024/01/20 08:10:47;;;;;;;42.15;20.27;;;;;;;;;;5029026;28;20037;-85
2024/01/20 08:13:13;;;;;;;48.90;22.33;;;;;;;;;;5037657;28;20040;-83
2024/01/20 08:15:39;;;;;;;46.78;19.92;;;;;;;;;;5042150;28;20589;-83
2024/01/20 08:18:05;;;;;;;49.92;19.90;;;;;;;;;;5025117;28;20041;-85
2024/01/20 08:20:31;;;;;;;43.90;19.20;;;;;;;;;;5025865;28;20044;-84
2024/01/20 08:22:57;;;;;;;49.75;22.38;;;;;;;;;;5028862;28;20713;-84
2024/01/20 08:25:23;;;;;;;46.60;21.92;;;;;;;;;;5021236;28;20140;-84
2024/01/20 08:27:49;;;;;;;41.72;20.33;;;;;;;;;;5026982;28;20087;-85
2024/01/20 08:30:15;;;;;;;46.70;19.55;;;;;;;;;;5034879;28;20045;-85
2024/01/20 08:32:41;;;;;;;41.38;19.75;;;;;;;;;;5026820;28;20051;-84
2024/01/20 08:35:08;;;;;;;46.58;18.50;;;;;;;;;;5039809;28;20085;-84
2024/01/20 08:37:34;;;;;;;44.97;19.52;;;;;;;;;;5040269;28;20095;-85
2024/01/20 08:40:00;;;;;;;44.80;19.42;;;;;;;;;;5036166;28;20529;-86
2024/01/20 08:42:26;;;;;;;44.67;20.67;;;;;;;;;;5047959;28;20041;-84
2024/01/20 08:44:52;;;;;;;44.92;20.75;;;;;;;;;;5038740;28;20044;-84
2024/01/20 08:47:18;;;;;;;41.67;17.95;;;;;;;;;;5041290;28;20045;-84
2024/01/20 08:49:44;;;;;;;48.13;20.00;;;;;;;;;;5023142;28;20048;-84
2024/01/20 08:52:10;;;;;;;45.70;18.42;;;;;;;;;;5034464;28;20051;-84
2024/01/20 08:54:37;;;;;;;39.70;18.80;;;;;;;;;;5027507;28;20128;-85
2024/01/20 08:57:03;;;;;;;39.15;18.98;;;;;;;;;;5044589;28;20063;-83
2024/01/20 08:59:29;;;;;;;43.15;18.05;;;;;;;;;;5048168;28;20048;-83
2024/01/20 09:01:55;;;;;;;39.10;18.60;;;;;;;;;;5044739;28;20044;-82
2024/01/20 09:04:21;;;;;;;37.58;17.35;;;;;;;;;;5047941;28;20049;-84
2024/01/20 09:06:47;;;;;;;45.10;19.08;;;;;;;;;;5037831;28;20419;-84
2024/01/20 09:09:13;;;;;;;45.15;19.15;;;;;;;;;;5027149;28;20041;-83
2024/01/20 09:11:39;;;;;;;39.05;16.83;;;;;;;;;;5028215;28;20043;-83
2024/01/20 09:14:05;;;;;;;36.88;17.77;;;;;;;;;;5025091;28;20044;-84
2024/01/20 09:16:31;;;;;;;41.70;18.50;;;;;;;;;;5030653;28;20079;-83
2024/01/20 09:18:58;;;;;;;40.60;17.13;;;;;;;;;;5046724;28;20247;-83
2024/01/20 09:21:24;;;;;;;41.92;19.33;;;;;;;;;;5045984;28;20059;-85
2024/01/20 09:23:53;;;;;;;41.78;17.85;;;;;;;;;;5025360;28;20520;-84
2024/01/20 09:26:19;;;;;;;41.13;17.48;;;;;;;;;;5026951;28;20098;-84
2024/01/20 09:28:45;;;;;;;42.53;18.08;;;;;;;;;;5030187;28;20278;-83
2024/01/20 09:31:11;;;;;;;39.10;18.20;;;;;;;;;;5035911;28;20036;-83
2024/01/20 09:33:37;;;;;;;43.95;20.17;;;;;;;;;;5049227;28;20639;-83
2024/01/20 09:36:03;;;;;;;34.65;16.25;;;;;;;;;;5035351;28;20041;-84
2024/01/20 09:38:29;;;;;;;40.33;18.13;;;;;;;;;;5046173;28;20518;-84
2024/01/20 09:40:59;;;;;;;40.58;17.00;;;;;;;;;;5046554;28;20176;-84
2024/01/20 09:43:25;;;;;;;39.10;17.52;;;;;;;;;;5047110;28;20410;-83
2024/01/20 09:45:52;;;;;;;39.38;18.52;;;;;;;;;;5035246;28;20079;-84
2024/01/20 09:48:19;;;;;;;36.45;16.73;;;;;;;;;;5045022;28;20040;-83
2024/01/20 09:50:45;;;;;;;43.15;17.33;;;;;;;;;;5028815;28;20529;-83
2024/01/20 09:53:14;;;;;;;35.10;17.73;;;;;;;;;;5028909;28;20131;-84
2024/01/20 09:55:41;;;;;;;39.80;16.63;;;;;;;;;;5046122;28;20367;-84
2024/01/20 09:58:08;;;;;;;38.72;17.02;;;;;;;;;;5031460;28;20135;-84
2024/01/20 10:00:34;;;;;;;37.78;16.00;;;;;;;;;;5035526;28;20041;-84
2024/01/20 10:03:01;;;;;;;41.83;17.73;;;;;;;;;;5047907;28;20049;-84
2024/01/20 10:05:29;;;;;;;36.25;17.17;;;;;;;;;;5035861;28;20078;-84
2024/01/20 10:07:55;;;;;;;37.05;17.80;;;;;;;;;;5026973;28;20101;-84
2024/01/20 10:10:21;;;;;;;39.22;16.23;;;;;;;;;;5031844;28;20041;-84
2024/01/20 10:12:51;;;;;;;38.95;18.27;;;;;;;;;;5028812;28;20045;-83
2024/01/20 10:15:25;;;;;;;41.75;17.60;;;;;;;;;;5046167;28;20048;-84
2024/01/20 10:17:52;;;;;;;39.40;17.13;;;;;;;;;;5044568;28;20507;-85
2024/01/20 10:20:25;;;;;;;41.08;17.73;;;;;;;;;;5043406;28;20118;-85
2024/01/20 10:22:51;;;;;;;37.05;15.85;;;;;;;;;;5032623;28;20415;-84
2024/01/20 10:25:21;;;;;;;39.20;18.05;;;;;;;;;;5030160;28;20171;-84
2024/01/20 10:27:48;;;;;;;36.88;15.77;;;;;;;;;;5047950;28;20045;-86
2024/01/20 10:30:17;;;;;;;40.55;17.42;;;;;;;;;;5036475;28;20051;-85
2024/01/20 10:32:47;;;;;;;41.65;16.77;;;;;;;;;;5038508;28;20201;-84
2024/01/20 10:35:13;;;;;;;36.58;16.48;;;;;;;;;;5048088;28;20048;-85
2024/01/20 10:37:40;;;;;;;39.70;16.85;;;;;;;;;;5044569;28;20067;-85
2024/01/20 10:40:09;;;;;;;35.30;16.73;;;;;;;;;;5022647;28;20615;-85
2024/01/20 10:42:38;;;;;;;42.50;17.02;;;;;;;;;;5018991;28;20056;-85
2024/01/20 10:45:04;;;;;;;33.47;15.60;;;;;;;;;;5035877;28;20045;-84
2024/01/20 10:47:36;;;;;;;37.40;16.33;;;;;;;;;;5043989;28;20886;-86
2024/01/20 10:50:06;;;;;;;40.30;17.10;;;1.70;99.90;;;;;;5029433;28;20110;-84
2024/01/20 10:52:34;;;;;;;37.47;17.70;;;;;;;;;;5024733;28;20041;-85
2024/01/20 10:55:00;;;;;;;39.58;17.70;;;;;;;;;;5031680;28;20506;-85
2024/01/20 10:57:27;;;;;;;33.53;17.08;;;;;;;;;;5043650;28;20077;-85
2024/01/20 10:59:54;;;;;;;35.55;15.90;;;;;;;;;;5036576;28;20062;-85
2024/01/20 11:02:20;;;;;;;39.00;18.60;;;;;;;;;;5045775;28;20549;-86
2024/01/20 11:04:46;;;;;;;40.88;18.95;;;;;;;;;;5027523;28;20720;-85
2024/01/20 11:07:13;;;;;;;42.08;19.00;;;;;;;;;;5039118;28;20045;-85
2024/01/20 11:09:39;;;;;;;41.03;18.98;;;;;;;;;;5047257;28;20040;-85
2024/01/20 11:12:09;;;;;;;40.20;18.73;;;;;;;;;;5025150;28;20045;-85
2024/01/20 11:14:35;;;;;;;39.50;19.85;;;;;;;;;;5025273;28;20041;-85
2024/01/20 11:17:12;;;;;;;36.38;20.08;;;;;;;;;;5042474;28;20127;-85
2024/01/20 11:19:38;;;;;;;48.90;20.25;;;;;;;;;;5041668;28;20068;-85
2024/01/20 11:22:04;;;;;;;42.45;18.85;;;;;;;;;;5025106;28;20524;-84
2024/01/20 11:24:41;;;;;;;41.58;19.88;;;;;;;;;;5042143;28;20067;-85
2024/01/20 11:27:07;;;;;;;49.00;21.27;;;;;;;;;;5036911;28;20056;-84
2024/01/20 11:29:34;;;;;;;39.65;20.27;;;;;;;;;;5027402;28;20059;-84
2024/01/20 11:32:00;;;;;;;42.33;20.80;;;;;;;;;;5042865;28;20128;-84
2024/01/20 11:34:26;;;;;;;42.30;20.05;;;;;;;;;;5025601;28;20047;-84
2024/01/20 11:36:53;;;;;;;40.10;19.65;;;;;;;;;;5043373;28;20063;-85
2024/01/20 11:39:19;;;;;;;43.55;19.70;;;;;;;;;;5037775;28;20088;-85
2024/01/20 11:41:46;;;;;;;40.88;18.33;;;;;;;;;;5027429;28;20658;-85
2024/01/20 11:44:12;;;;;;;41.67;20.38;;;;;;;;;;5036733;28;20052;-84
2024/01/20 11:46:38;;;;;;;44.88;19.23;;;;;;;;;;5026893;28;20791;-84
2024/01/20 11:49:04;;;;;;;44.78;19.60;;;;;;;;;;5023500;28;20513;-85
2024/01/20 11:51:31;;;;;;;37.35;18.90;;;;;;;;;;5044111;28;20127;-85
2024/01/20 11:53:57;;;;;;;36.38;17.75;;;;;;;;;;5049995;28;20040;-85
2024/01/20 11:56:23;;;;;;;39.05;19.23;;;;;;;;;;5017360;28;20092;-85
2024/01/20 11:58:49;;;;;;;43.72;20.13;;;;;;;;;;5037357;28;20060;-86
2024/01/20 12:01:16;;;;;;;40.08;18.08;;;;;;;;;;5013407;28;20051;-85
2024/01/20 12:03:42;;;;;;;45.85;19.70;;;;;;;;;;5028476;28;20117;-85
2024/01/20 12:06:08;;;;;;;44.35;19.90;;;;;;;;;;5027557;28;20045;-86
2024/01/20 12:08:36;;;;;;;36.25;18.23;;;;;;;;;;5025481;28;20048;-85
2024/01/20 12:11:02;;;;;;;39.47;18.05;;;;;;;;;;5022509;28;20434;-86
2024/01/20 12:13:32;;;;;;;36.22;17.55;;;;;;;;;;5022287;28;20473;-85
2024/01/20 12:15:59;;;;;;;38.80;17.52;;;;;;;;;;5025497;28;20102;-85
2024/01/20 12:18:25;;;;;;;34.97;16.77;;;;;;;;;;5042531;28;20041;-84
2024/01/20 12:20:51;;;;;;;37.63;18.30;;;;;;;;;;5026250;28;20049;-84
2024/01/20 12:23:18;;;;;;;34.17;17.55;;;;;;;;;;5025150;28;20045;-85
2024/01/20 12:25:44;;;;;;;38.45;16.65;;;;;;;;;;5019714;28;20044;-84
2024/01/20 12:28:10;;;;;;;33.10;16.05;;;;;;;;;;5041051;28;20067;-85
2024/01/20 12:30:36;;;;;;;38.13;16.23;;;;;;;;;;5022841;28;20565;-84
2024/01/20 12:33:02;;;;;;;39.78;17.88;;;;;;;;;;5045433;28;20049;-85
2024/01/20 12:35:28;;;;;;;35.85;16.45;;;;;;;;;;5022170;28;20124;-84
2024/01/20 12:37:56;;;;;;;37.92;17.08;;;;;;;;;;5025465;28;20068;-84
2024/01/20 12:40:24;;;;;;;35.88;17.67;;;;;;;;;;5049545;28;20049;-86
2024/01/20 12:42:50;;;;;;;33.20;16.33;;;;;;;;;;5042740;28;20114;-85
2024/01/20 12:45:16;;;;;;;31.77;15.68;;;;;;;;;;5041000;28;20175;-84
2024/01/20 12:47:42;;;;;;;31.27;14.73;;;;;;;;;;5019276;28;20056;-84
2024/01/20 12:50:09;;;;;;;34.90;16.10;;;;;;;;;;5033454;28;20048;-84
2024/01/20 12:52:35;;;;;;;32.50;15.30;;;;;;;;;;5034328;28;20049;-84
2024/01/20 12:55:02;;;;;;;33.55;15.75;;;;;;;;;;5026410;28;20120;-84
2024/01/20 12:57:28;;;;;;;36.33;14.75;;;;;;;;;;5023766;28;20049;-85
2024/01/20 12:59:54;;;;;;;31.98;14.77;;;;;;;;;;5042351;28;20049;-84
2024/01/20 13:02:20;;;;;;;32.35;15.55;;;;;;;;;;5025717;28;20051;-85
2024/01/20 13:04:46;;;;;;;28.98;14.00;;;;;;;;;;5014786;28;20041;-85
2024/01/20 13:07:12;;;;;;;29.00;15.02;;;;;;;;;;5021531;28;20041;-84
2024/01/20 13:09:38;;;;;;;29.85;15.63;;;;;;;;;;5022945;28;20048;-84
2024/01/20 13:12:05;;;;;;;29.13;13.90;;;;;;;;;;5026797;28;20037;-84
2024/01/20 13:14:31;;;;;;;31.85;15.50;;;;;;;;;;5023237;28;20064;-85
2024/01/20 13:16:57;;;;;;;31.33;16.17;;;;;;;;;;5041300;28;20094;-83
2024/01/20 13:19:23;;;;;;;27.77;14.57;;;;;;;;;;5021862;28;20045;-85
2024/01/20 13:21:49;;;;;;;26.85;13.07;;;;;;;;;;5042260;28;21478;-85
2024/01/20 13:24:15;;;;;;;29.25;14.98;;;;;;;;;;5039007;28;20044;-84
2024/01/20 13:26:41;;;;;;;25.92;12.57;;;;;;;;;;5022913;28;20062;-86
2024/01/20 13:29:08;;;;;;;31.45;15.05;;;;;;;;;;5026506;28;20433;-84
2024/01/20 13:31:35;;;;;;;29.55;13.98;;;;;;;;;;5042632;28;20052;-85
2024/01/20 13:34:01;;;;;;;27.83;14.27;;;;;;;;;;5040363;28;20414;-84
2024/01/20 13:36:27;;;;;;;27.95;14.23;;;;;;;;;;5041419;28;20049;-85
2024/01/20 13:38:54;;;;;;;31.60;14.52;;;;;;;;;;5045179;28;20061;-84
2024/01/20 13:41:21;;;;;;;33.05;14.88;;;;;;;;;;5032411;28;20044;-84
2024/01/20 13:43:47;;;;;;;28.95;13.98;;;;;;;;;;5039664;28;20057;-85
2024/01/20 13:46:13;;;;;;;26.67;14.48;;;;;;;;;;5022133;28;20090;-83
2024/01/20 13:48:39;;;;;;;25.48;13.27;;;;;;;;;;5028329;28;20392;-85
2024/01/20 13:51:05;;;;;;;23.35;12.57;;;;;;;;;;5038223;28;20125;-84
2024/01/20 13:53:31;;;;;;;22.65;12.32;;;;;;;;;;5035578;28;20040;-85
2024/01/20 13:55:57;;;;;;;25.67;12.68;;;;;;;;;;5025207;28;20072;-84
2024/01/20 13:58:23;;;;;;;25.08;12.20;;;;;;;;;;5034315;28;20586;-85
2024/01/20 14:00:49;;;;;;;25.42;12.57;;;;;;;;;;5038399;28;20048;-84
2024/01/20 14:03:15;;;;;;;27.15;11.15;;;;;;;;;;5035739;28;20136;-85
2024/01/20 14:05:43;;;;;;;20.10;10.40;;;;;;;;;;5036914;28;20123;-86
2024/01/20 14:08:09;;;;;;;21.42;11.50;;;;;;;;;;5032307;28;20052;-86
2024/01/20 14:10:36;;;;;;;24.13;13.27;;;;;;;;;;5041355;28;20045;-86
2024/01/20 14:13:04;;;;;;;24.38;12.90;;;;;;;;;;5041593;28;20045;-86